Time;durP1;ratioP1;P1;durP2;ratioP2;P2;SDS_P1;SDS_P2;PMS_P1;PMS_P2;Temp;Humidity;BMP_temperature;BMP_pressure;BME280_temperature;BME280_humidity;BME280_pressure;Samples;Min_cycle;Max_cycle;Signal;HPM_P1;HPM_P2
2023/07/10 04:02:49;;;;;;;0.70;0.10;;;25.90;1.00;;;;;;5031669;23;20852;-73
2023/07/10 04:05:17;;;;;;;0.70;0.10;;;25.80;1.00;;;;;;4976823;28;20446;-72
2023/07/10 04:07:45;;;;;;;0.70;0.10;;;25.80;1.00;;;;;;4974611;28;20509;-72
2023/07/10 04:10:13;;;;;;;0.70;0.20;;;25.50;1.00;;;;;;4975555;28;20524;-72
2023/07/10 04:12:41;;;;;;;0.70;0.10;;;25.40;1.00;;;;;;4993268;28;20461;-73
2023/07/10 04:15:10;;;;;;;0.70;0.20;;;25.20;1.00;;;;;;4993384;28;20445;-73
2023/07/10 04:17:37;;;;;;;0.70;0.10;;;25.10;1.00;;;;;;4998984;23;20489;-74
2023/07/10 04:20:08;;;;;;;0.70;0.17;;;25.10;1.00;;;;;;4973647;28;20496;-73
2023/07/10 04:22:36;;;;;;;24.50;23.30;;;25.20;1.00;;;;;;4972981;28;20501;-73
2023/07/10 04:25:05;;;;;;;0.70;0.10;;;25.20;1.00;;;;;;4973732;28;20457;-74
2023/07/10 04:27:33;;;;;;;0.70;0.10;;;25.10;1.00;;;;;;4973316;28;20457;-73
2023/07/10 04:30:01;;;;;;;0.70;0.10;;;24.90;1.00;;;;;;4973314;28;20500;-72
2023/07/10 04:32:29;;;;;;;0.70;0.20;;;;;;;;;;4972627;28;20437;-73
2023/07/10 04:34:57;;;;;;;0.70;0.10;;;24.80;1.00;;;;;;4973266;28;21011;-73
2023/07/10 04:37:27;;;;;;;0.70;0.10;;;24.80;1.00;;;;;;4972815;28;21169;-72
2023/07/10 04:39:54;;;;;;;0.70;0.13;;;24.90;1.00;;;;;;4973581;28;20468;-73
2023/07/10 04:42:22;;;;;;;1.47;1.37;;;25.00;1.00;;;;;;4973275;28;21030;-73
2023/07/10 04:44:50;;;;;;;0.70;0.10;;;25.00;1.00;;;;;;4973777;28;20472;-73
2023/07/10 04:47:18;;;;;;;2.77;2.67;;;25.00;1.00;;;;;;4973253;28;20467;-73
2023/07/10 04:49:46;;;;;;;0.70;0.10;;;;;;;;;;4971481;28;20940;-73
2023/07/10 04:52:14;;;;;;;0.70;0.20;;;25.00;1.00;;;;;;4975438;28;20552;-73
2023/07/10 04:54:43;;;;;;;0.70;0.10;;;25.00;1.00;;;;;;4958502;28;20457;-73
2023/07/10 04:57:11;;;;;;;0.70;0.10;;;;;;;;;;4972459;28;20509;-73
2023/07/10 04:59:39;;;;;;;0.70;0.10;;;25.00;1.00;;;;;;4957580;29;20478;-73
2023/07/10 05:02:07;;;;;;;0.70;0.10;;;25.10;1.00;;;;;;4957395;29;20453;-73
2023/07/10 05:04:35;;;;;;;0.70;0.10;;;25.10;1.00;;;;;;4957913;29;20452;-74
2023/07/10 05:07:03;;;;;;;0.70;0.10;;;;;;;;;;4972970;28;20550;-74
2023/07/10 05:09:31;;;;;;;0.70;0.20;;;25.00;1.00;;;;;;4976529;28;20460;-74
2023/07/10 05:12:00;;;;;;;0.70;0.20;;;25.10;1.00;;;;;;4992745;28;20445;-73
2023/07/10 05:14:29;;;;;;;0.70;0.10;;;;;;;;;;4996097;28;20543;-73
2023/07/10 05:16:57;;;;;;;1.00;0.40;;;;;;;;;;4992587;28;20598;-73
2023/07/10 05:19:25;;;;;;;0.70;0.20;;;25.10;1.00;;;;;;4984270;28;20454;-73
2023/07/10 05:21:54;;;;;;;0.70;0.10;;;25.10;1.30;;;;;;4986412;28;20515;-72
2023/07/10 05:24:22;;;;;;;0.70;0.20;;;25.10;3.20;;;;;;4986910;28;20447;-74
2023/07/10 05:26:50;;;;;;;0.70;0.10;;;25.10;3.40;;;;;;4985166;28;20544;-74
2023/07/10 05:29:19;;;;;;;0.70;0.10;;;25.10;3.50;;;;;;4984481;28;20523;-74
2023/07/10 05:31:47;;;;;;;0.70;0.13;;;;;;;;;;4984793;28;20452;-73
2023/07/10 05:34:18;;;;;;;9.63;6.93;;;25.10;4.50;;;;;;4985559;28;20538;-72
2023/07/10 05:36:47;;;;;;;0.70;0.10;;;;;;;;;;4987030;28;20484;-73
2023/07/10 05:39:15;;;;;;;0.70;0.10;;;;;;;;;;4986331;28;20442;-73
2023/07/10 05:41:43;;;;;;;0.70;0.10;;;25.20;7.80;;;;;;4984345;28;20450;-73
2023/07/10 05:44:11;;;;;;;0.70;0.10;;;;;;;;;;4985767;28;20974;-73
2023/07/10 05:46:40;;;;;;;0.70;0.20;;;25.30;9.60;;;;;;4984764;28;20461;-73
2023/07/10 05:49:08;;;;;;;0.83;0.50;;;25.30;10.70;;;;;;4982632;28;20441;-73
2023/07/10 05:51:36;;;;;;;1.53;1.00;;;25.30;19.10;;;;;;4985692;28;20923;-73
2023/07/10 05:54:04;;;;;;;0.70;0.10;;;25.30;12.40;;;;;;4986629;28;20441;-74
2023/07/10 05:56:32;;;;;;;0.70;0.20;;;25.30;14.20;;;;;;4983655;28;20552;-73
2023/07/10 05:59:00;;;;;;;0.80;0.37;;;;;;;;;;4985383;28;20943;-74
2023/07/10 06:01:28;;;;;;;0.70;0.10;;;25.30;15.70;;;;;;4982520;28;20442;-73
2023/07/10 06:03:58;;;;;;;0.70;0.20;;;25.40;17.00;;;;;;4984634;28;20445;-72
2023/07/10 06:06:26;;;;;;;0.70;0.20;;;;;;;;;;4984248;28;20475;-73
2023/07/10 06:08:54;;;;;;;0.70;0.10;;;;;;;;;;4986296;28;20438;-73
2023/07/10 06:11:22;;;;;;;0.70;0.10;;;;;;;;;;4986367;28;21606;-72
2023/07/10 06:13:50;;;;;;;0.70;0.13;;;;;;;;;;4983486;28;20473;-71
2023/07/10 06:16:18;;;;;;;0.70;0.10;;;25.50;12.90;;;;;;4984928;28;20471;-75
2023/07/10 06:18:46;;;;;;;0.70;0.10;;;25.40;13.00;;;;;;4983405;28;20492;-73
2023/07/10 06:21:15;;;;;;;0.70;0.10;;;25.50;12.60;;;;;;4980482;28;20526;-73
2023/07/10 06:23:44;;;;;;;0.70;0.10;;;;;;;;;;4979179;28;20473;-73
2023/07/10 06:26:12;;;;;;;0.70;0.10;;;;;;;;;;4982588;28;20533;-73
2023/07/10 06:28:40;;;;;;;0.70;0.20;;;25.50;11.10;;;;;;4984149;28;20513;-73
2023/07/10 06:31:10;;;;;;;0.70;0.23;;;25.50;12.50;;;;;;4963004;28;20501;-74
2023/07/10 06:33:39;;;;;;;0.70;0.10;;;25.60;12.10;;;;;;4956390;29;20458;-74
2023/07/10 06:36:09;;;;;;;0.77;0.37;;;25.60;10.90;;;;;;4956252;29;20843;-74
2023/07/10 06:38:39;;;;;;;0.80;0.40;;;25.60;6.40;;;;;;4956324;29;20494;-73
2023/07/10 06:41:07;;;;;;;0.70;0.10;;;;;;;;;;4957045;29;20450;-74
2023/07/10 06:43:35;;;;;;;0.70;0.10;;;25.60;4.60;;;;;;4972609;28;20457;-73
2023/07/10 06:46:03;;;;;;;0.70;0.20;;;25.80;3.70;;;;;;4975734;28;20496;-72
2023/07/10 06:48:32;;;;;;;0.70;0.20;;;25.80;3.90;;;;;;4975518;28;20805;-73
2023/07/10 06:51:01;;;;;;;0.70;0.20;;;;;;;;;;4975839;28;20453;-73
2023/07/10 06:53:29;;;;;;;0.70;0.10;;;25.90;3.80;;;;;;4975000;28;20457;-73
2023/07/10 06:56:01;;;;;;;1.10;0.20;;;25.90;3.80;;;;;;4956959;28;20451;-73
2023/07/10 06:58:31;;;;;;;0.70;0.20;;;26.00;3.80;;;;;;4956050;29;20904;-73
2023/07/10 07:01:00;;;;;;;0.70;0.20;;;25.90;3.80;;;;;;4956011;29;20450;-72
2023/07/10 07:03:29;;;;;;;0.70;0.20;;;;;;;;;;4956778;28;20537;-73
2023/07/10 07:05:57;;;;;;;0.70;0.10;;;25.90;4.40;;;;;;4955655;29;20968;-73
2023/07/10 07:08:25;;;;;;;0.70;0.10;;;26.00;3.80;;;;;;4956535;28;20463;-73
2023/07/10 07:10:55;;;;;;;0.70;0.20;;;26.10;3.90;;;;;;4975534;28;20551;-72
2023/07/10 07:13:24;;;;;;;0.70;0.10;;;26.20;3.90;;;;;;4972218;28;20486;-72
2023/07/10 07:15:54;;;;;;;1.10;0.20;;;26.20;3.90;;;;;;4957011;28;20490;-72
2023/07/10 07:18:23;;;;;;;0.70;0.10;;;26.30;4.00;;;;;;4955439;29;20577;-72
2023/07/10 07:20:56;;;;;;;0.70;0.10;;;;;;;;;;4955531;29;20458;-72
2023/07/10 07:23:24;;;;;;;0.70;0.20;;;26.50;2.90;;;;;;4955240;29;20447;-72
2023/07/10 07:25:54;;;;;;;0.90;0.20;;;26.60;1.10;;;;;;4969537;28;20458;-72
2023/07/10 07:28:24;;;;;;;0.70;0.20;;;26.70;1.00;;;;;;4974934;28;20434;-72
2023/07/10 07:30:52;;;;;;;0.70;0.20;;;;;;;;;;4978625;28;20806;-73
2023/07/10 07:33:21;;;;;;;0.70;0.10;;;26.70;1.00;;;;;;4978679;28;20505;-73
2023/07/10 07:35:49;;;;;;;0.90;0.20;;;26.70;1.00;;;;;;4977864;28;20456;-73
2023/07/10 07:38:17;;;;;;;0.70;0.20;;;26.70;3.10;;;;;;4957410;28;20482;-73
2023/07/10 07:40:45;;;;;;;0.97;0.40;;;;;;;;;;4954919;29;20458;-73
2023/07/10 07:43:13;;;;;;;0.70;0.20;;;;;;;;;;4955325;29;20453;-73
2023/07/10 07:45:50;;;;;;;1.20;0.23;;;26.80;1.00;;;;;;4958637;29;20451;-74
2023/07/10 07:48:18;;;;;;;0.80;0.50;;;26.80;1.00;;;;;;4955954;28;20488;-73
2023/07/10 07:50:58;;;;;;;0.83;0.43;;;26.80;1.00;;;;;;4955073;29;20529;-73
2023/07/10 07:53:26;;;;;;;0.70;0.10;;;26.80;1.00;;;;;;4955209;29;20457;-73
2023/07/10 07:55:54;;;;;;;0.90;0.20;;;26.90;1.00;;;;;;4955507;29;20469;-73
2023/07/10 07:58:22;;;;;;;0.70;0.10;;;27.00;1.00;;;;;;4958175;29;20513;-72
2023/07/10 08:00:51;;;;;;;0.70;0.20;;;26.90;1.00;;;;;;4963073;28;20490;-73
2023/07/10 08:03:20;;;;;;;1.63;1.27;;;;;;;;;;4958780;28;20477;-74
2023/07/10 08:05:48;;;;;;;1.03;0.73;;;26.80;1.00;;;;;;4956897;29;20509;-73
2023/07/10 08:08:16;;;;;;;0.70;0.10;;;26.80;1.00;;;;;;4956138;29;20447;-72
2023/07/10 08:10:46;;;;;;;1.10;0.63;;;26.80;1.00;;;;;;4969889;28;20499;-73
2023/07/10 08:13:16;;;;;;;0.90;0.63;;;26.90;1.00;;;;;;4972999;28;20465;-73
2023/07/10 08:15:45;;;;;;;1.37;0.67;;;26.90;1.00;;;;;;4960312;28;20463;-74
2023/07/10 08:18:14;;;;;;;0.70;0.20;;;26.90;1.00;;;;;;4954484;29;20486;-74
2023/07/10 08:20:42;;;;;;;1.10;0.57;;;27.00;1.00;;;;;;4956294;28;20926;-74
2023/07/10 08:23:10;;;;;;;0.70;0.10;;;27.00;1.00;;;;;;4954744;29;21028;-74
2023/07/10 08:25:39;;;;;;;1.53;1.43;;;27.10;1.00;;;;;;4978971;28;20831;-74
2023/07/10 08:28:07;;;;;;;0.70;0.20;;;27.00;1.00;;;;;;4979591;28;20561;-72
2023/07/10 08:30:35;;;;;;;0.70;0.10;;;27.10;1.00;;;;;;4957782;28;20967;-73
2023/07/10 08:33:03;;;;;;;1.43;1.30;;;27.10;1.00;;;;;;4954906;29;20517;-74
2023/07/10 08:35:32;;;;;;;2.07;1.53;;;27.10;1.00;;;;;;4978248;28;20536;-74
2023/07/10 08:38:00;;;;;;;2.00;1.53;;;27.00;1.00;;;;;;4979267;28;20547;-74
2023/07/10 08:40:31;;;;;;;2.20;1.20;;;27.00;1.00;;;;;;4976284;28;20448;-74
2023/07/10 08:43:05;;;;;;;0.97;0.60;;;27.10;1.00;;;;;;4982280;28;20480;-75
2023/07/10 08:45:36;;;;;;;0.70;0.10;;;27.20;1.00;;;;;;4964582;28;20557;-76
2023/07/10 08:48:14;;;;;;;2.60;0.87;;;;;;;;;;4951461;28;20443;-76
2023/07/10 08:50:47;;;;;;;0.70;0.20;;;27.40;1.00;;;;;;4954580;28;20504;-76
2023/07/10 08:53:23;;;;;;;2.90;1.90;;;27.30;1.00;;;;;;4941318;28;20834;-75
2023/07/10 08:56:01;;;;;;;1.13;0.70;;;27.10;1.00;;;;;;4962227;28;20442;-75
2023/07/10 08:58:34;;;;;;;0.70;0.10;;;27.10;1.00;;;;;;4953930;28;20483;-71
2023/07/10 09:01:05;;;;;;;0.70;0.10;;;27.20;1.00;;;;;;4938472;29;20457;-71
2023/07/10 09:03:40;;;;;;;1.20;0.77;;;27.30;1.00;;;;;;4952520;28;20796;-71
2023/07/10 09:06:18;;;;;;;0.70;0.10;;;27.30;1.00;;;;;;4946901;28;20557;-76
2023/07/10 09:08:50;;;;;;;0.70;0.30;;;27.40;1.00;;;;;;4952139;28;20945;-79
2023/07/10 09:11:19;;;;;;;4.10;3.13;;;27.50;1.00;;;;;;4945605;28;21030;-75
2023/07/10 09:13:52;;;;;;;1.40;0.90;;;;;;;;;;4953687;28;20519;-75
2023/07/10 09:16:21;;;;;;;0.80;0.30;;;27.40;1.00;;;;;;4951491;28;20474;-77
2023/07/10 09:18:54;;;;;;;4.43;1.23;;;27.40;1.00;;;;;;4963811;28;20504;-77
2023/07/10 09:21:25;;;;;;;2.33;2.20;;;27.40;1.00;;;;;;4958706;28;20484;-77
2023/07/10 09:23:53;;;;;;;0.70;0.20;;;27.40;1.00;;;;;;4957141;28;20472;-76
2023/07/10 09:26:28;;;;;;;1.53;1.13;;;27.40;1.00;;;;;;4968081;28;20537;-77
2023/07/10 09:29:02;;;;;;;0.70;0.20;;;27.50;1.00;;;;;;4970637;28;20516;-78
2023/07/10 09:31:43;;;;;;;0.70;0.20;;;27.50;1.00;;;;;;4964318;28;20958;-72
2023/07/10 09:34:12;;;;;;;0.70;0.27;;;27.60;1.00;;;;;;4962086;28;20943;-73
2023/07/10 09:36:41;;;;;;;1.83;0.90;;;27.60;1.00;;;;;;4932673;29;20895;-74
2023/07/10 09:39:12;;;;;;;0.70;0.20;;;27.60;1.00;;;;;;4935655;29;20479;-74
2023/07/10 09:41:40;;;;;;;0.70;0.30;;;27.70;1.00;;;;;;4937820;29;20479;-74
2023/07/10 09:44:16;;;;;;;0.90;0.50;;;27.70;1.00;;;;;;4949376;28;20449;-73
2023/07/10 09:46:44;;;;;;;1.37;0.47;;;;;;;;;;4960532;28;20470;-73
2023/07/10 09:49:19;;;;;;;1.10;0.77;;;27.60;1.00;;;;;;4957117;28;20479;-73
2023/07/10 09:51:58;;;;;;;0.70;0.20;;;27.70;1.00;;;;;;4948758;29;20490;-74
2023/07/10 09:54:34;;;;;;;1.57;1.17;;;27.80;1.00;;;;;;4938327;29;20954;-73
2023/07/10 09:57:04;;;;;;;0.70;0.20;;;27.80;1.00;;;;;;4938219;29;20553;-74
2023/07/10 09:59:33;;;;;;;0.70;0.20;;;27.90;1.00;;;;;;4938333;29;20550;-73
2023/07/10 10:02:17;;;;;;;1.40;1.07;;;28.00;1.00;;;;;;4939129;29;20460;-77
2023/07/10 10:04:45;;;;;;;2.63;2.20;;;;;;;;;;4937775;29;20491;-74
2023/07/10 10:07:19;;;;;;;0.70;0.20;;;27.90;1.00;;;;;;4938228;29;20475;-76
2023/07/10 10:09:48;;;;;;;0.90;0.50;;;27.80;1.00;;;;;;4963289;28;20810;-76
2023/07/10 10:12:23;;;;;;;1.37;1.23;;;;;;;;;;4960875;28;20490;-77
2023/07/10 10:14:55;;;;;;;0.97;0.83;;;27.80;1.00;;;;;;4957017;29;20537;-77
2023/07/10 10:17:25;;;;;;;1.07;0.53;;;27.80;1.00;;;;;;4939874;29;20494;-76
2023/07/10 10:19:57;;;;;;;0.70;0.10;;;27.70;1.00;;;;;;4938857;29;20550;-75
2023/07/10 10:22:29;;;;;;;0.80;0.47;;;27.80;1.00;;;;;;4939475;29;20969;-75
2023/07/10 10:24:57;;;;;;;0.70;0.10;;;28.00;1.00;;;;;;4953794;29;20443;-75
2023/07/10 10:27:36;;;;;;;0.70;0.30;;;28.20;1.00;;;;;;4968409;29;20506;-75
2023/07/10 10:30:20;;;;;;;0.70;0.20;;;28.20;1.00;;;;;;4965519;29;20473;-76
2023/07/10 10:33:01;;;;;;;0.90;0.77;;;28.20;1.00;;;;;;4976508;28;20538;-75
2023/07/10 10:35:45;;;;;;;0.70;0.20;;;28.20;1.00;;;;;;4961261;28;20451;-75
2023/07/10 10:38:27;;;;;;;1.30;0.40;;;28.20;1.00;;;;;;4939680;29;20444;-75
2023/07/10 10:41:05;;;;;;;0.70;0.40;;;28.20;1.00;;;;;;4959543;28;20540;-75
2023/07/10 10:43:46;;;;;;;1.80;1.70;;;28.20;1.00;;;;;;4956406;28;20506;-76
2023/07/10 10:46:26;;;;;;;2.13;0.57;;;28.00;1.00;;;;;;4958340;29;20474;-77
2023/07/10 10:49:09;;;;;;;1.00;0.87;;;27.90;1.00;;;;;;4957947;28;20454;-75
2023/07/10 10:51:44;;;;;;;1.33;0.70;;;27.90;1.00;;;;;;4959655;29;20506;-75
2023/07/10 10:54:20;;;;;;;0.70;0.20;;;28.00;1.00;;;;;;4946911;29;20465;-75
2023/07/10 10:57:19;;;;;;;2.60;2.40;;;28.10;1.00;;;;;;4944075;29;20986;-75
2023/07/10 10:59:53;;;;;;;0.80;0.40;;;28.20;1.00;;;;;;4941932;29;20575;-75
2023/07/10 11:02:46;;;;;;;1.17;1.03;;;28.20;1.00;;;;;;4951642;28;20474;-75
2023/07/10 11:05:20;;;;;;;4.97;2.17;;;28.30;1.00;;;;;;4938971;29;20875;-75
2023/07/10 11:07:54;;;;;;;0.70;0.10;;;28.30;1.00;;;;;;4937884;29;20846;-75
2023/07/10 11:10:31;;;;;;;0.70;0.20;;;28.40;1.00;;;;;;4948266;28;20443;-77
2023/07/10 11:13:00;;;;;;;5.60;1.57;;;28.40;1.00;;;;;;4955367;29;20454;-75
2023/07/10 11:15:31;;;;;;;2.10;1.20;;;28.40;1.00;;;;;;4944714;29;20507;-75
2023/07/10 11:18:00;;;;;;;3.63;1.90;;;28.40;1.00;;;;;;4952390;29;20533;-75
2023/07/10 11:20:28;;;;;;;0.70;0.10;;;28.40;1.00;;;;;;4956497;28;20484;-77
2023/07/10 11:22:59;;;;;;;0.70;0.10;;;28.50;1.00;;;;;;4955929;28;20456;-75
2023/07/10 11:25:33;;;;;;;0.70;0.10;;;28.60;1.00;;;;;;4942415;28;20478;-76
2023/07/10 11:28:03;;;;;;;0.70;0.27;;;28.70;1.00;;;;;;4937552;29;20476;-75
2023/07/10 11:30:33;;;;;;;0.70;0.20;;;28.70;1.00;;;;;;4937486;29;20781;-75
2023/07/10 11:33:04;;;;;;;0.70;0.20;;;28.70;1.00;;;;;;4937516;29;20527;-75
2023/07/10 11:35:33;;;;;;;0.80;0.40;;;28.80;1.00;;;;;;4947672;29;20823;-75
2023/07/10 11:38:17;;;;;;;0.83;0.40;;;28.80;1.00;;;;;;4953627;29;20575;-75
2023/07/10 11:40:49;;;;;;;0.80;0.30;;;28.70;1.00;;;;;;4957611;28;20479;-75
2023/07/10 11:43:53;;;;;;;1.27;0.77;;;28.80;1.00;;;;;;4960981;28;20446;-75
2023/07/10 11:46:30;;;;;;;0.70;0.10;;;28.60;1.00;;;;;;4953479;29;20515;-74
2023/07/10 11:49:11;;;;;;;0.70;0.20;;;28.60;1.00;;;;;;4937641;29;20451;-76
2023/07/10 11:51:40;;;;;;;0.70;0.10;;;28.50;1.00;;;;;;4937397;29;20453;-76
2023/07/10 11:54:45;;;;;;;0.70;0.20;;;28.60;1.00;;;;;;4936976;29;20440;-75
2023/07/10 11:57:18;;;;;;;0.70;0.20;;;28.80;1.00;;;;;;4937642;29;20476;-76
2023/07/10 11:59:52;;;;;;;0.70;0.20;;;28.80;1.00;;;;;;4944062;28;20483;-75
2023/07/10 12:02:33;;;;;;;0.70;0.10;;;29.00;1.00;;;;;;4954595;28;20542;-76
2023/07/10 12:05:02;;;;;;;0.70;0.10;;;29.00;1.00;;;;;;4942414;28;20452;-76
2023/07/10 12:07:31;;;;;;;1.10;0.87;;;28.80;1.00;;;;;;4936799;29;21029;-75
2023/07/10 12:10:00;;;;;;;0.70;0.20;;;28.80;1.00;;;;;;4944713;28;20928;-76
2023/07/10 12:12:34;;;;;;;1.47;1.03;;;28.80;1.00;;;;;;4961898;28;20447;-76
2023/07/10 12:15:03;;;;;;;0.70;0.13;;;28.90;1.00;;;;;;4954834;29;20976;-75
2023/07/10 12:17:33;;;;;;;2.30;2.10;;;29.00;1.00;;;;;;4954704;29;20489;-75
2023/07/10 12:20:05;;;;;;;0.77;0.40;;;29.00;1.00;;;;;;4954437;28;20490;-75
2023/07/10 12:22:37;;;;;;;0.70;0.20;;;29.10;1.00;;;;;;4955150;29;20447;-75
2023/07/10 12:25:11;;;;;;;0.70;0.20;;;29.20;1.00;;;;;;4947366;28;20509;-76
2023/07/10 12:27:42;;;;;;;0.70;0.20;;;29.20;1.00;;;;;;4952481;29;20552;-75
2023/07/10 12:30:16;;;;;;;0.70;0.20;;;29.30;1.00;;;;;;4952267;29;20499;-76
2023/07/10 12:32:45;;;;;;;0.70;0.20;;;29.40;1.00;;;;;;4934672;29;20952;-76
2023/07/10 12:35:16;;;;;;;0.80;0.40;;;29.40;1.00;;;;;;4934541;29;20451;-76
2023/07/10 12:37:48;;;;;;;2.03;1.27;;;29.40;1.00;;;;;;4934426;29;20489;-76
2023/07/10 12:40:18;;;;;;;0.70;0.20;;;29.40;1.00;;;;;;4940813;28;20541;-76
2023/07/10 12:42:49;;;;;;;0.70;0.20;;;29.50;1.00;;;;;;4961723;28;20954;-75
2023/07/10 12:45:27;;;;;;;0.77;0.23;;;29.70;1.00;;;;;;4955541;29;20647;-76
2023/07/10 12:48:01;;;;;;;0.70;0.20;;;29.70;1.00;;;;;;4955069;29;20480;-76
2023/07/10 12:50:36;;;;;;;0.70;0.20;;;29.80;1.00;;;;;;4954535;29;20456;-74
2023/07/10 12:53:06;;;;;;;0.70;0.10;;;29.80;1.00;;;;;;4939092;29;20950;-74
2023/07/10 12:55:34;;;;;;;0.70;0.20;;;29.80;1.00;;;;;;4935219;29;20513;-72
2023/07/10 12:58:05;;;;;;;0.70;0.20;;;29.80;1.00;;;;;;4934428;29;20563;-72
2023/07/10 13:00:48;;;;;;;0.70;0.10;;;29.70;1.00;;;;;;4941527;29;20536;-73
2023/07/10 13:03:27;;;;;;;0.70;0.10;;;29.80;1.00;;;;;;4952785;29;20449;-73
2023/07/10 13:05:58;;;;;;;1.63;1.07;;;29.90;1.00;;;;;;4948876;28;20813;-72
2023/07/10 13:08:35;;;;;;;1.40;0.97;;;29.90;1.00;;;;;;4953936;29;20448;-74
2023/07/10 13:11:04;;;;;;;0.70;0.20;;;29.70;1.00;;;;;;4954198;28;20952;-74
2023/07/10 13:13:36;;;;;;;1.33;0.60;;;29.70;1.00;;;;;;4949980;28;20457;-74
2023/07/10 13:16:05;;;;;;;0.70;0.20;;;29.70;1.00;;;;;;4948701;28;20484;-74
2023/07/10 13:18:36;;;;;;;0.70;0.10;;;29.80;1.00;;;;;;4961798;28;20457;-73
2023/07/10 13:21:06;;;;;;;2.80;2.33;;;29.80;1.00;;;;;;4957539;29;20580;-74
2023/07/10 13:23:34;;;;;;;1.23;0.77;;;29.40;1.00;;;;;;4956977;29;21025;-74
2023/07/10 13:26:15;;;;;;;7.03;2.30;;;29.30;1.00;;;;;;4938481;29;20466;-73
2023/07/10 13:28:45;;;;;;;0.70;0.30;;;29.30;1.00;;;;;;4941715;29;20614;-73
2023/07/10 13:31:17;;;;;;;7.73;2.33;;;29.40;1.00;;;;;;4957591;29;20448;-73
2023/07/10 13:33:46;;;;;;;2.40;1.20;;;29.50;1.00;;;;;;4957369;29;20799;-72
2023/07/10 13:36:16;;;;;;;0.90;0.40;;;29.50;1.00;;;;;;4957362;29;20561;-73
2023/07/10 13:38:44;;;;;;;0.77;0.27;;;29.30;1.00;;;;;;4957491;29;20544;-72
2023/07/10 13:41:15;;;;;;;0.70;0.30;;;29.40;1.00;;;;;;4955046;29;20487;-73
2023/07/10 13:43:44;;;;;;;2.80;2.50;;;29.50;1.00;;;;;;4954782;28;20441;-72
2023/07/10 13:46:21;;;;;;;0.90;0.50;;;29.80;1.00;;;;;;4937962;29;20500;-73
2023/07/10 13:48:50;;;;;;;0.70;0.20;;;29.80;1.00;;;;;;4938152;29;20454;-74
2023/07/10 13:51:19;;;;;;;0.90;0.50;;;29.90;1.00;;;;;;4937763;29;20800;-73
2023/07/10 13:53:48;;;;;;;0.70;0.20;;;30.00;1.00;;;;;;4957066;29;20544;-73
2023/07/10 13:56:19;;;;;;;0.70;0.20;;;30.20;1.00;;;;;;4956772;29;20469;-73
2023/07/10 13:58:48;;;;;;;1.10;0.63;;;30.30;1.00;;;;;;4956658;29;20811;-73
2023/07/10 14:01:20;;;;;;;0.70;0.20;;;30.40;1.00;;;;;;4956857;29;20572;-73
2023/07/10 14:03:48;;;;;;;2.13;1.43;;;30.60;1.00;;;;;;4937505;29;20454;-74
2023/07/10 14:06:33;;;;;;;1.47;1.07;;;30.50;1.00;;;;;;4937464;29;20569;-74
2023/07/10 14:09:04;;;;;;;0.70;0.20;;;30.40;1.00;;;;;;4936306;29;20463;-73
2023/07/10 14:11:32;;;;;;;0.70;0.27;;;30.30;1.00;;;;;;4948992;28;20858;-73
2023/07/10 14:14:02;;;;;;;0.70;0.20;;;30.40;1.00;;;;;;4956219;29;20493;-74
2023/07/10 14:16:32;;;;;;;2.73;1.10;;;30.50;1.00;;;;;;4956747;29;21051;-74
2023/07/10 14:19:00;;;;;;;0.80;0.43;;;30.40;1.00;;;;;;4957387;29;20456;-75
2023/07/10 14:21:28;;;;;;;0.90;0.60;;;30.60;1.00;;;;;;4955306;28;20508;-76
2023/07/10 14:23:57;;;;;;;1.67;1.53;;;30.70;1.00;;;;;;4965611;28;20491;-72
2023/07/10 14:26:27;;;;;;;1.10;0.40;;;30.70;1.00;;;;;;4956725;29;20541;-72
2023/07/10 14:28:58;;;;;;;0.80;0.40;;;30.60;1.00;;;;;;4974294;28;20453;-72
2023/07/10 14:31:28;;;;;;;1.23;0.40;;;30.50;1.00;;;;;;4943970;28;20448;-73
2023/07/10 14:33:56;;;;;;;0.70;0.20;;;30.60;1.00;;;;;;4965131;28;20442;-74
2023/07/10 14:36:26;;;;;;;0.77;0.33;;;30.60;1.00;;;;;;4965543;28;20510;-71
2023/07/10 14:38:54;;;;;;;1.00;0.47;;;30.60;1.00;;;;;;4958294;28;20476;-74
2023/07/10 14:41:24;;;;;;;0.90;0.50;;;30.70;1.00;;;;;;4974379;28;20883;-74
2023/07/10 14:43:53;;;;;;;0.70;0.20;;;30.40;1.00;;;;;;4960572;28;20458;-75
2023/07/10 14:46:29;;;;;;;0.70;0.10;;;30.40;1.00;;;;;;4961035;29;20477;-76
2023/07/10 14:48:57;;;;;;;0.70;0.10;;;30.30;1.00;;;;;;4968321;29;20568;-74
2023/07/10 14:51:25;;;;;;;0.70;0.20;;;30.30;1.00;;;;;;4959574;29;21040;-77
2023/07/10 14:53:53;;;;;;;0.70;0.20;;;30.30;1.00;;;;;;4970442;28;20544;-77
2023/07/10 14:56:27;;;;;;;0.80;0.50;;;30.30;1.00;;;;;;4961875;29;21026;-75
2023/07/10 14:58:54;;;;;;;0.70;0.10;;;30.30;1.00;;;;;;4967957;28;20513;-74
2023/07/10 15:01:22;;;;;;;0.70;0.20;;;30.40;1.00;;;;;;4971205;28;20552;-74
2023/07/10 15:03:52;;;;;;;0.90;0.50;;;30.30;1.00;;;;;;4968969;28;20462;-74
2023/07/10 15:09:40;;;;;;;0.80;0.37;;;30.10;1.00;;;;;;4950619;28;20956;-76
2023/07/10 15:12:11;;;;;;;0.70;0.20;;;30.00;1.00;;;;;;4960237;28;20450;-74
2023/07/10 15:14:39;;;;;;;0.70;0.20;;;30.10;1.00;;;;;;4961010;28;20444;-74
2023/07/10 15:17:10;;;;;;;0.70;0.20;;;30.40;1.00;;;;;;4960902;28;20487;-73
2023/07/10 15:19:39;;;;;;;0.70;0.10;;;30.50;1.00;;;;;;4946457;28;20956;-75
2023/07/10 15:22:12;;;;;;;0.70;0.10;;;30.80;1.00;;;;;;4953139;29;20486;-76
2023/07/10 15:24:40;;;;;;;0.70;0.20;;;30.90;1.00;;;;;;4962343;28;20482;-76
2023/07/10 15:27:08;;;;;;;0.70;0.20;;;31.00;1.00;;;;;;4958482;28;20563;-74
2023/07/10 15:29:36;;;;;;;0.70;0.20;;;31.00;1.00;;;;;;4937333;29;20533;-75
2023/07/10 15:32:15;;;;;;;0.70;0.20;;;31.10;1.00;;;;;;4951194;29;20454;-77
2023/07/10 15:34:46;;;;;;;0.70;0.20;;;31.20;1.00;;;;;;4954181;28;20459;-76
2023/07/10 15:37:21;;;;;;;0.70;0.20;;;31.40;1.00;;;;;;4937179;28;20510;-76
2023/07/10 15:39:49;;;;;;;0.70;0.10;;;31.50;1.00;;;;;;4955160;28;20447;-76
2023/07/10 15:42:19;;;;;;;0.70;0.20;;;31.50;1.00;;;;;;4966752;28;20545;-76
2023/07/10 15:44:48;;;;;;;0.70;0.10;;;31.40;1.00;;;;;;4955210;29;20960;-76
2023/07/10 15:47:17;;;;;;;0.70;0.10;;;31.40;1.00;;;;;;4967561;28;20830;-75
2023/07/10 15:49:47;;;;;;;0.70;0.20;;;31.50;1.00;;;;;;4960632;28;20743;-76
2023/07/10 15:52:29;;;;;;;0.70;0.20;;;31.70;1.00;;;;;;4946189;28;20486;-77
2023/07/10 15:55:05;;;;;;;0.70;0.30;;;31.80;1.00;;;;;;4945333;29;20457;-76
2023/07/10 15:57:33;;;;;;;0.80;0.37;;;31.90;1.00;;;;;;4953811;29;20545;-75
2023/07/10 16:00:04;;;;;;;0.70;0.20;;;32.10;1.00;;;;;;4943767;29;20502;-77
2023/07/10 16:02:34;;;;;;;0.70;0.20;;;32.20;1.00;;;;;;4936013;29;20490;-77
2023/07/10 16:05:13;;;;;;;0.70;0.17;;;32.20;1.00;;;;;;4935776;29;20526;-76
2023/07/10 16:07:40;;;;;;;0.70;0.20;;;32.10;1.00;;;;;;4946611;29;20467;-75
2023/07/10 16:10:13;;;;;;;0.80;0.30;;;32.20;1.00;;;;;;4937950;29;20954;-73
2023/07/10 16:12:41;;;;;;;2.50;1.43;;;32.20;1.00;;;;;;4955253;29;20960;-75
2023/07/10 16:15:17;;;;;;;0.70;0.20;;;32.10;1.00;;;;;;4954872;29;20478;-73
2023/07/10 16:17:46;;;;;;;0.70;0.20;;;32.10;1.00;;;;;;4955130;29;20855;-73
2023/07/10 16:20:19;;;;;;;0.70;0.30;;;32.20;1.00;;;;;;4951002;29;20808;-74
2023/07/10 16:22:51;;;;;;;1.43;1.07;;;32.30;1.00;;;;;;4935048;29;20499;-75
2023/07/10 16:25:19;;;;;;;0.70;0.10;;;;;;;;;;4934831;29;20959;-76
2023/07/10 16:27:48;;;;;;;0.70;0.30;;;;;;;;;;4934960;29;20486;-75
2023/07/10 16:30:17;;;;;;;0.70;0.10;;;;;;;;;;4935614;29;20461;-73
2023/07/10 16:32:46;;;;;;;0.70;0.20;;;32.40;1.00;;;;;;4940350;29;20788;-74
2023/07/10 16:35:15;;;;;;;1.10;0.60;;;;;;;;;;4954831;29;20457;-75
2023/07/10 16:37:45;;;;;;;0.70;0.17;;;32.50;1.00;;;;;;4953853;29;20513;-76
2023/07/10 16:40:18;;;;;;;0.70;0.20;;;32.60;1.00;;;;;;4953800;29;21059;-73
2023/07/10 16:42:48;;;;;;;0.80;0.30;;;32.60;1.00;;;;;;4953938;29;20556;-74
2023/07/10 16:45:21;;;;;;;0.70;0.10;;;32.70;1.00;;;;;;4948231;29;20456;-75
2023/07/10 16:47:50;;;;;;;0.80;0.40;;;32.80;1.00;;;;;;4937140;29;20482;-75
2023/07/10 16:50:20;;;;;;;0.70;0.20;;;32.70;1.00;;;;;;4939264;29;20454;-74
2023/07/10 16:52:50;;;;;;;0.70;0.20;;;32.70;1.00;;;;;;4941553;28;20536;-75
2023/07/10 16:55:20;;;;;;;1.20;0.67;;;32.80;1.00;;;;;;4975878;28;20485;-75
2023/07/10 16:57:50;;;;;;;0.70;0.20;;;32.80;1.00;;;;;;4961121;28;20905;-76
2023/07/10 17:00:21;;;;;;;0.70;0.20;;;32.90;1.00;;;;;;4971928;28;20455;-76
2023/07/10 17:02:53;;;;;;;0.70;0.20;;;32.90;1.00;;;;;;4944801;29;20478;-74
2023/07/10 17:05:21;;;;;;;1.93;1.70;;;32.90;1.00;;;;;;4946959;29;20558;-75
2023/07/10 17:07:50;;;;;;;0.70;0.20;;;32.90;1.00;;;;;;4938006;29;20566;-75
2023/07/10 17:10:18;;;;;;;0.70;0.20;;;32.90;1.00;;;;;;4941103;29;20455;-74
2023/07/10 17:12:47;;;;;;;0.70;0.17;;;32.80;1.00;;;;;;4957244;29;20505;-76
2023/07/10 17:15:18;;;;;;;0.70;0.20;;;32.80;1.00;;;;;;4956789;29;20450;-75
2023/07/10 17:17:46;;;;;;;0.70;0.20;;;32.90;1.00;;;;;;4957121;29;20474;-75
2023/07/10 17:20:14;;;;;;;0.70;0.10;;;32.90;1.00;;;;;;4952348;28;20457;-75
2023/07/10 17:22:42;;;;;;;0.70;0.20;;;33.10;1.00;;;;;;4937773;29;20557;-74
2023/07/10 17:25:16;;;;;;;0.70;0.20;;;33.20;1.00;;;;;;4935961;29;20462;-72
2023/07/10 17:27:45;;;;;;;0.70;0.20;;;33.20;1.00;;;;;;4946576;29;20501;-73
2023/07/10 17:30:15;;;;;;;0.70;0.20;;;33.20;1.00;;;;;;4956029;29;20952;-74
2023/07/10 17:32:43;;;;;;;0.70;0.20;;;33.20;1.00;;;;;;4955225;29;20447;-74